Time;durP1;ratioP1;P1;durP2;ratioP2;P2;SDS_P1;SDS_P2;PMS_P1;PMS_P2;Temp;Humidity;BMP_temperature;BMP_pressure;BME280_temperature;BME280_humidity;BME280_pressure;Samples;Min_cycle;Max_cycle;Signal;HPM_P1;HPM_P2
2022/04/01 00:00:16;;;;;;;55.53;20.40;;;3.00;99.90;;;;;;6223856;28;20688;-72
2022/04/01 00:03:16;;;;;;;46.67;18.60;;;3.00;99.90;;;;;;6219021;28;20173;-72
2022/04/01 00:06:17;;;;;;;35.03;16.07;;;3.00;99.90;;;;;;6220779;28;20247;-71
2022/04/01 00:09:17;;;;;;;39.57;16.57;;;3.00;99.90;;;;;;6220004;28;20180;-72
2022/04/01 00:12:18;;;;;;;34.93;15.57;;;2.90;99.90;;;;;;6218740;28;20686;-72
2022/04/01 00:15:19;;;;;;;44.57;18.07;;;3.00;99.90;;;;;;6220470;28;20201;-71
2022/04/01 00:18:20;;;;;;;33.20;17.13;;;3.00;99.90;;;;;;6220505;28;20208;-71
2022/04/01 00:21:21;;;;;;;42.00;16.57;;;3.10;99.90;;;;;;6218463;28;20185;-71
2022/04/01 00:24:22;;;;;;;41.17;16.73;;;3.10;99.90;;;;;;6220235;28;20613;-71
2022/04/01 00:27:23;;;;;;;43.83;17.83;;;3.20;99.90;;;;;;6220481;28;20296;-70
2022/04/01 00:30:24;;;;;;;44.80;19.07;;;2.90;99.90;;;;;;6218541;28;20866;-70
2022/04/01 00:33:25;;;;;;;38.40;17.27;;;3.00;99.90;;;;;;6218445;28;20209;-70
2022/04/01 00:36:26;;;;;;;37.90;16.83;;;2.90;99.90;;;;;;6218744;28;20291;-70
2022/04/01 00:39:30;;;;;;;39.80;17.30;;;3.00;99.90;;;;;;6219884;28;20278;-70
2022/04/01 00:42:30;;;;;;;39.43;17.57;;;2.90;99.90;;;;;;6219288;28;20177;-71
2022/04/01 00:45:32;;;;;;;54.63;19.83;;;2.90;99.90;;;;;;6220094;28;20323;-72
2022/04/01 00:48:32;;;;;;;41.43;18.23;;;3.00;99.90;;;;;;6202471;28;20208;-71
2022/04/01 00:51:33;;;;;;;54.23;21.20;;;2.80;99.90;;;;;;6219701;28;20230;-70
2022/04/01 00:54:37;;;;;;;47.93;19.87;;;2.90;99.90;;;;;;6219686;28;20217;-71
2022/04/01 00:57:38;;;;;;;37.77;16.70;;;2.90;99.90;;;;;;6219311;28;20684;-71
2022/04/01 01:00:39;;;;;;;36.30;15.70;;;3.00;99.90;;;;;;6218077;28;20312;-71
2022/04/01 01:03:40;;;;;;;33.73;15.87;;;3.00;99.90;;;;;;6218962;28;20184;-71
2022/04/01 01:06:44;;;;;;;36.97;18.00;;;3.00;99.90;;;;;;6219603;28;20205;-71
2022/04/01 01:09:45;;;;;;;47.63;18.43;;;3.00;99.90;;;;;;6218148;28;20567;-71
2022/04/01 01:12:46;;;;;;;43.37;18.07;;;2.90;99.90;;;;;;6217693;28;20208;-71
2022/04/01 01:15:47;;;;;;;44.77;18.87;;;2.90;99.90;;;;;;6217909;28;20200;-70
2022/04/01 01:19:07;;;;;;;40.03;17.47;;;3.00;99.90;;;;;;6219696;28;20183;-71
2022/04/01 01:22:08;;;;;;;35.43;16.20;;;3.00;99.90;;;;;;6217376;28;20170;-72
2022/04/01 01:25:11;;;;;;;37.53;15.63;;;3.10;99.90;;;;;;6217989;28;20258;-71
2022/04/01 01:28:12;;;;;;;32.93;13.80;;;3.00;99.90;;;;;;6217998;28;20208;-71
2022/04/01 01:31:13;;;;;;;40.70;17.07;;;3.10;99.90;;;;;;6218773;28;20180;-71
2022/04/01 01:34:14;;;;;;;30.00;13.07;;;3.00;99.90;;;;;;6218011;28;20243;-71
2022/04/01 01:37:15;;;;;;;32.00;14.47;;;3.10;99.90;;;;;;6219217;28;20286;-71
2022/04/01 01:40:15;;;;;;;28.50;13.33;;;3.10;99.90;;;;;;6218004;28;20185;-71
2022/04/01 01:43:16;;;;;;;28.37;14.53;;;3.10;99.90;;;;;;6216979;28;20188;-71
2022/04/01 01:46:16;;;;;;;31.57;14.20;;;3.00;99.90;;;;;;6219027;28;20213;-71
2022/04/01 01:49:20;;;;;;;47.80;15.87;;;3.00;99.90;;;;;;6218607;28;20185;-71
2022/04/01 01:55:39;;;;;;;219.40;24.87;;;2.90;99.90;;;;;;6218867;28;20240;-70
2022/04/01 01:58:40;;;;;;;192.23;25.33;;;2.80;99.90;;;;;;6218658;28;20561;-71
2022/04/01 02:01:42;;;;;;;285.63;31.50;;;2.60;99.90;;;;;;6218166;28;20607;-71
2022/04/01 02:04:45;;;;;;;462.83;46.90;;;2.60;99.90;;;;;;6219044;28;20178;-72
2022/04/01 02:07:49;;;;;;;507.10;46.57;;;2.60;99.90;;;;;;6217406;28;20228;-72
2022/04/01 02:10:49;;;;;;;327.20;32.73;;;2.60;99.90;;;;;;6218823;28;20173;-71
2022/04/01 02:13:51;;;;;;;331.77;33.03;;;2.70;99.90;;;;;;6217998;28;20351;-71
2022/04/01 02:16:51;;;;;;;189.40;26.23;;;2.70;99.90;;;;;;6217083;28;20192;-71
2022/04/01 02:19:52;;;;;;;78.30;17.37;;;2.60;99.90;;;;;;6217678;28;20586;-71
2022/04/01 02:22:54;;;;;;;48.97;15.93;;;2.70;99.90;;;;;;6217910;28;20180;-71
2022/04/01 02:25:55;;;;;;;59.27;18.67;;;2.80;99.90;;;;;;6218393;28;20717;-72
2022/04/01 02:28:59;;;;;;;57.77;17.83;;;2.80;99.90;;;;;;6216872;28;20184;-71
2022/04/01 02:31:59;;;;;;;42.73;16.47;;;2.90;99.90;;;;;;6217653;28;20197;-71
2022/04/01 02:35:00;;;;;;;254.57;30.07;;;2.90;99.90;;;;;;6216814;28;20236;-71
2022/04/01 02:38:01;;;;;;;433.50;42.37;;;2.80;99.90;;;;;;6218726;28;20255;-71
2022/04/01 02:41:02;;;;;;;297.53;30.03;;;2.70;99.90;;;;;;6218008;28;20560;-71
2022/04/01 02:44:09;;;;;;;354.50;36.17;;;2.70;99.90;;;;;;6217856;28;20265;-70
2022/04/01 02:47:10;;;;;;;345.93;31.03;;;2.60;99.90;;;;;;6216722;28;20527;-71
2022/04/01 02:50:11;;;;;;;229.17;25.53;;;2.60;99.90;;;;;;6217946;28;20266;-70
2022/04/01 02:53:12;;;;;;;388.30;40.03;;;2.70;99.90;;;;;;6217296;28;20220;-70
2022/04/01 02:56:13;;;;;;;570.07;43.33;;;2.50;99.90;;;;;;6216790;28;20244;-70
2022/04/01 02:59:14;;;;;;;303.40;28.50;;;2.40;99.90;;;;;;6222569;28;20220;-70
2022/04/01 03:02:15;;;;;;;314.13;32.57;;;2.60;99.90;;;;;;6221775;28;20646;-70
2022/04/01 03:05:15;;;;;;;272.23;32.13;;;2.50;99.90;;;;;;6222150;28;20196;-70
2022/04/01 03:08:18;;;;;;;330.17;33.13;;;2.50;99.90;;;;;;6220851;28;20192;-70
2022/04/01 03:11:19;;;;;;;190.73;22.20;;;2.40;99.90;;;;;;6221478;28;20185;-70
2022/04/01 03:14:19;;;;;;;123.77;19.30;;;2.50;99.90;;;;;;6221173;28;20231;-71
2022/04/01 03:17:20;;;;;;;105.07;18.63;;;2.50;99.90;;;;;;6222243;28;20235;-70
2022/04/01 03:20:22;;;;;;;249.07;23.63;;;2.50;99.90;;;;;;6222399;28;20201;-70
2022/04/01 03:23:23;;;;;;;192.80;20.93;;;2.60;99.90;;;;;;6220061;28;20208;-70
2022/04/01 03:26:24;;;;;;;88.83;17.13;;;2.60;99.90;;;;;;6221901;28;20672;-70
2022/04/01 03:29:25;;;;;;;72.10;14.17;;;2.60;99.90;;;;;;6221879;28;20323;-70
2022/04/01 03:32:26;;;;;;;108.33;17.80;;;2.60;99.90;;;;;;6219912;28;20287;-70
2022/04/01 03:35:27;;;;;;;80.00;15.13;;;2.50;99.90;;;;;;6220534;28;20203;-70
2022/04/01 03:38:29;;;;;;;127.63;18.13;;;2.50;99.90;;;;;;6222068;28;20228;-70
2022/04/01 03:41:30;;;;;;;36.97;11.73;;;2.40;99.90;;;;;;6220888;28;20177;-70
2022/04/01 03:44:31;;;;;;;22.97;10.50;;;2.50;99.90;;;;;;6220646;28;20223;-71
2022/04/01 03:47:41;;;;;;;24.70;10.27;;;2.50;99.90;;;;;;6220639;28;20689;-70
2022/04/01 03:50:45;;;;;;;24.20;10.00;;;2.60;99.90;;;;;;6220029;28;20200;-72
2022/04/01 03:53:57;;;;;;;27.33;10.50;;;2.50;99.90;;;;;;6219583;28;20205;-70
2022/04/01 03:57:01;;;;;;;26.50;10.37;;;2.40;99.90;;;;;;6219881;28;20193;-72
2022/04/01 04:00:12;;;;;;;24.80;10.23;;;2.50;99.90;;;;;;6220054;28;20245;-72
2022/04/01 04:03:14;;;;;;;188.83;21.77;;;2.50;99.90;;;;;;6222862;28;20173;-71
2022/04/01 04:06:16;;;;;;;269.20;22.40;;;2.50;99.90;;;;;;6224532;28;20204;-71
2022/04/01 04:09:18;;;;;;;312.00;25.70;;;2.40;99.90;;;;;;6222950;28;20186;-72
2022/04/01 04:12:22;;;;;;;362.33;32.20;;;2.40;99.90;;;;;;6221953;28;20195;-70
2022/04/01 04:15:29;;;;;;;287.90;24.33;;;2.20;99.90;;;;;;6221740;28;20232;-70
2022/04/01 04:18:41;;;;;;;262.10;25.10;;;2.00;99.90;;;;;;6223575;28;20625;-72
2022/04/01 04:22:27;;;;;;;427.90;39.30;;;2.00;99.90;;;;;;6218964;28;20205;-71
2022/04/01 04:25:39;;;;;;;462.57;38.07;;;2.10;99.90;;;;;;6207772;28;20225;-71
2022/04/01 04:28:47;;;;;;;394.40;35.40;;;1.90;99.90;;;;;;6219060;28;20648;-71
2022/04/01 04:31:56;;;;;;;450.93;30.90;;;1.90;99.90;;;;;;6219620;28;20193;-71
2022/04/01 04:34:58;;;;;;;427.00;37.23;;;1.90;99.90;;;;;;6220118;28;20223;-71
2022/04/01 04:37:59;;;;;;;605.77;44.83;;;1.90;99.90;;;;;;6218873;28;20550;-71
2022/04/01 04:41:00;;;;;;;680.47;61.33;;;1.80;99.90;;;;;;6221556;28;20180;-71
2022/04/01 04:44:02;;;;;;;644.17;45.90;;;1.70;99.90;;;;;;6223134;28;20183;-71
2022/04/01 04:47:07;;;;;;;470.40;38.60;;;1.70;99.90;;;;;;6223762;28;20679;-70
2022/04/01 04:50:09;;;;;;;526.17;46.77;;;1.60;99.90;;;;;;6224935;28;20241;-70
2022/04/01 04:53:13;;;;;;;248.03;23.63;;;1.70;99.90;;;;;;6222977;28;20212;-71
2022/04/01 04:56:14;;;;;;;315.67;28.00;;;1.80;99.90;;;;;;6223319;28;20197;-70
2022/04/01 04:59:19;;;;;;;261.20;23.07;;;1.80;99.90;;;;;;6223100;28;20184;-71
2022/04/01 05:03:17;;;;;;;318.23;30.57;;;1.80;99.90;;;;;;6224110;28;20183;-71
2022/04/01 05:06:27;;;;;;;204.10;25.33;;;1.80;99.90;;;;;;6224375;28;20240;-70
2022/04/01 05:09:56;;;;;;;343.97;30.40;;;1.70;99.90;;;;;;6206593;28;20174;-71
2022/04/01 05:13:29;;;;;;;433.73;34.17;;;1.60;99.90;;;;;;6223724;28;20189;-70
2022/04/01 05:16:54;;;;;;;371.40;34.13;;;1.80;99.90;;;;;;6224768;28;20202;-71
2022/04/01 05:20:01;;;;;;;610.23;54.23;;;1.70;99.90;;;;;;6223322;28;20171;-71
2022/04/01 05:23:20;;;;;;;731.30;64.37;;;1.50;99.90;;;;;;6217246;28;20680;-71
2022/04/01 05:26:38;;;;;;;607.17;43.10;;;1.40;99.90;;;;;;6217498;28;20205;-71
2022/04/01 05:29:42;;;;;;;512.43;38.17;;;1.40;99.90;;;;;;6217723;28;20178;-71
2022/04/01 05:33:00;;;;;;;437.57;38.87;;;1.50;99.90;;;;;;6216744;28;20203;-71
2022/04/01 05:36:04;;;;;;;290.63;25.93;;;1.50;99.90;;;;;;6217372;28;20213;-71
2022/04/01 05:39:05;;;;;;;360.97;33.43;;;1.60;99.90;;;;;;6217490;28;20186;-71
2022/04/01 05:42:07;;;;;;;355.57;32.67;;;1.70;99.90;;;;;;6216865;28;20667;-71
2022/04/01 05:45:08;;;;;;;461.17;39.83;;;1.70;99.90;;;;;;6218583;28;20195;-70
2022/04/01 05:48:11;;;;;;;402.50;33.77;;;1.60;99.90;;;;;;6218536;28;20648;-70
2022/04/01 05:51:13;;;;;;;364.90;30.67;;;1.50;99.90;;;;;;6216592;28;20588;-70
2022/04/01 05:54:19;;;;;;;396.43;34.30;;;1.60;99.90;;;;;;6217197;28;20197;-70
2022/04/01 05:57:20;;;;;;;230.33;22.70;;;1.60;99.90;;;;;;6217471;28;20214;-72
2022/04/01 06:00:22;;;;;;;307.73;25.63;;;1.70;99.90;;;;;;6217639;28;20185;-72
2022/04/01 06:03:55;;;;;;;225.53;22.77;;;1.70;99.90;;;;;;6218084;28;20866;-71
2022/04/01 06:07:28;;;;;;;286.63;28.20;;;1.60;99.90;;;;;;6217303;28;20225;-69
2022/04/01 06:10:46;;;;;;;311.97;27.17;;;1.60;99.90;;;;;;6218406;28;20204;-71
2022/04/01 06:14:12;;;;;;;254.37;24.70;;;1.70;99.90;;;;;;6216473;28;20255;-71
2022/04/01 06:17:25;;;;;;;381.93;33.57;;;1.70;99.90;;;;;;6217480;28;20212;-71
2022/04/01 06:20:27;;;;;;;246.43;25.57;;;1.60;99.90;;;;;;6215937;28;20185;-71
2022/04/01 06:23:50;;;;;;;251.77;24.17;;;1.60;99.90;;;;;;6217543;28;20671;-71
2022/04/01 06:27:01;;;;;;;193.73;22.43;;;1.50;99.90;;;;;;6217132;28;20237;-71
2022/04/01 06:30:13;;;;;;;249.47;26.20;;;1.50;99.90;;;;;;6217846;28;20288;-71
2022/04/01 06:33:33;;;;;;;225.60;19.83;;;1.50;99.90;;;;;;6203367;28;20225;-71
2022/04/01 06:36:45;;;;;;;221.77;21.37;;;1.50;99.90;;;;;;6221398;28;20208;-73
2022/04/01 06:40:06;;;;;;;250.10;22.13;;;1.60;99.90;;;;;;6210762;28;20564;-70
2022/04/01 06:43:07;;;;;;;295.20;23.97;;;1.80;99.90;;;;;;6209981;28;20566;-70
2022/04/01 06:46:08;;;;;;;139.63;18.43;;;1.70;99.90;;;;;;6222672;28;20251;-71
2022/04/01 06:49:09;;;;;;;200.43;19.10;;;1.70;99.90;;;;;;6221208;28;20211;-71
2022/04/01 06:52:10;;;;;;;292.37;28.60;;;1.50;99.90;;;;;;6220485;28;20185;-71
2022/04/01 06:55:11;;;;;;;284.40;22.10;;;1.50;99.90;;;;;;6220836;28;20247;-71
2022/04/01 06:58:11;;;;;;;250.53;23.73;;;1.50;99.90;;;;;;6222221;28;20188;-71
2022/04/01 07:01:14;;;;;;;226.77;25.47;;;1.20;99.90;;;;;;6221589;28;20204;-71
2022/04/01 07:04:15;;;;;;;131.23;19.67;;;1.30;99.90;;;;;;6222182;28;20965;-71
2022/04/01 07:07:16;;;;;;;81.73;14.83;;;1.30;99.90;;;;;;6222385;28;20204;-71
2022/04/01 07:10:16;;;;;;;132.57;13.90;;;1.30;99.90;;;;;;6222375;28;20220;-71
2022/04/01 07:13:17;;;;;;;127.70;14.60;;;1.30;99.90;;;;;;6221712;28;20211;-71
2022/04/01 07:16:18;;;;;;;133.03;16.30;;;1.20;99.90;;;;;;6220788;28;20299;-71
2022/04/01 07:19:19;;;;;;;112.03;15.93;;;1.20;99.90;;;;;;6221914;28;20195;-71
2022/04/01 07:22:19;;;;;;;165.80;17.83;;;1.30;99.90;;;;;;6221117;28;20268;-71
2022/04/01 07:25:22;;;;;;;274.07;27.30;;;1.30;99.90;;;;;;6221710;28;20358;-71
2022/04/01 07:28:23;;;;;;;174.67;20.37;;;1.30;99.90;;;;;;6220823;28;20186;-71
2022/04/01 07:34:44;;;;;;;152.43;20.27;;;1.10;99.90;;;;;;6220533;28;20213;-70
2022/04/01 07:37:46;;;;;;;111.07;11.73;;;1.10;99.90;;;;;;6220362;28;20207;-71
2022/04/01 07:40:46;;;;;;;42.50;8.30;;;1.20;99.90;;;;;;6221448;28;20263;-71
2022/04/01 07:43:47;;;;;;;56.10;11.17;;;1.20;99.90;;;;;;6220178;28;20191;-71
2022/04/01 07:46:52;;;;;;;53.50;11.07;;;1.30;99.90;;;;;;6221162;28;20300;-71
2022/04/01 07:49:52;;;;;;;48.43;12.00;;;1.30;99.90;;;;;;6220017;28;20184;-69
2022/04/01 07:52:54;;;;;;;47.73;9.33;;;1.20;99.90;;;;;;6210923;28;20204;-65
2022/04/01 07:55:54;;;;;;;29.40;9.00;;;1.20;99.90;;;;;;6214282;28;20788;-65
2022/04/01 07:58:55;;;;;;;18.53;5.87;;;1.20;99.90;;;;;;6215490;28;20240;-69
2022/04/01 08:01:56;;;;;;;26.63;8.73;;;1.30;99.90;;;;;;6214341;28;20178;-66
2022/04/01 08:04:57;;;;;;;25.73;6.93;;;1.30;99.90;;;;;;6215754;28;20227;-66
2022/04/01 08:07:58;;;;;;;34.00;8.30;;;1.30;99.90;;;;;;6215234;28;20671;-67
2022/04/01 08:10:58;;;;;;;31.20;8.30;;;1.20;99.90;;;;;;6219530;28;20201;-66
2022/04/01 08:14:00;;;;;;;35.73;9.73;;;1.30;99.90;;;;;;6218032;28;20297;-68
2022/04/01 08:17:00;;;;;;;88.10;12.00;;;1.20;99.90;;;;;;6218631;28;20320;-70
2022/04/01 08:20:01;;;;;;;107.77;13.67;;;1.10;99.90;;;;;;6220300;28;20180;-70
2022/04/01 08:23:02;;;;;;;67.13;11.37;;;0.90;99.90;;;;;;6219512;28;20192;-65
2022/04/01 08:26:03;;;;;;;42.07;8.00;;;0.90;99.90;;;;;;6219757;28;20201;-67
2022/04/01 08:29:04;;;;;;;79.53;12.83;;;1.00;99.90;;;;;;6217835;28;20217;-70
2022/04/01 08:32:07;;;;;;;42.47;8.10;;;1.20;99.90;;;;;;6217878;28;20203;-68
2022/04/01 08:35:08;;;;;;;88.27;12.00;;;1.20;99.90;;;;;;6220649;28;20212;-66
2022/04/01 08:38:09;;;;;;;31.13;7.00;;;1.20;99.90;;;;;;6218950;28;20231;-66
2022/04/01 08:41:10;;;;;;;16.83;5.33;;;1.20;99.90;;;;;;6220875;28;20180;-69
2022/04/01 08:44:12;;;;;;;56.60;8.03;;;1.30;99.90;;;;;;6232571;28;20243;-66
2022/04/01 08:47:13;;;;;;;25.50;6.53;;;1.00;99.90;;;;;;6233547;28;20266;-68
2022/04/01 08:50:14;;;;;;;50.07;8.27;;;1.10;99.90;;;;;;6229785;28;20199;-67
2022/04/01 08:53:15;;;;;;;31.67;7.13;;;1.20;99.90;;;;;;6226093;28;20303;-66
2022/04/01 08:56:19;;;;;;;45.53;8.10;;;1.30;99.90;;;;;;6230842;28;20212;-68
2022/04/01 08:59:20;;;;;;;84.67;11.57;;;1.40;99.90;;;;;;6233603;28;20192;-66
2022/04/01 09:02:24;;;;;;;53.43;10.03;;;1.50;99.90;;;;;;6230136;28;20903;-67
2022/04/01 09:05:25;;;;;;;52.80;8.33;;;1.50;99.90;;;;;;6226917;28;20220;-69
2022/04/01 09:08:38;;;;;;;42.37;7.23;;;1.60;99.90;;;;;;6230084;28;20270;-69
2022/04/01 09:11:38;;;;;;;84.50;9.77;;;1.50;99.90;;;;;;6221329;28;20712;-72
2022/04/01 09:14:42;;;;;;;102.03;12.50;;;1.50;99.90;;;;;;6220804;28;20331;-68
2022/04/01 09:17:46;;;;;;;42.73;6.87;;;1.40;99.90;;;;;;6244209;28;20218;-68
2022/04/01 09:20:52;;;;;;;39.80;6.83;;;1.40;99.90;;;;;;6229475;28;20558;-67
2022/04/01 09:23:53;;;;;;;11.00;5.23;;;1.40;99.90;;;;;;6213580;28;20208;-66
2022/04/01 09:26:55;;;;;;;12.70;6.27;;;1.60;99.90;;;;;;6231242;28;20909;-67
2022/04/01 09:29:56;;;;;;;8.67;4.63;;;1.70;99.90;;;;;;6238949;28;20205;-69
2022/04/01 09:34:01;;;;;;;11.03;5.10;;;1.70;99.90;;;;;;4184450;28;20611;-71
2022/04/01 09:36:06;;;;;;;9.60;5.50;;;1.60;99.90;;;;;;4177773;28;20489;-67
2022/04/01 09:38:09;;;;;;;7.73;4.67;;;1.70;99.90;;;;;;4178575;28;20519;-68
2022/04/01 09:40:13;;;;;;;7.07;4.50;;;1.70;99.90;;;;;;4189261;28;20426;-65
2022/04/01 09:42:13;;;;;;;5.27;4.03;;;1.90;99.90;;;;;;4182686;28;20454;-66
2022/04/01 09:44:21;;;;;;;9.70;7.67;;;2.00;99.90;;;;;;4189989;28;20450;-68
2022/04/01 09:46:26;;;;;;;4.67;3.40;;;2.10;99.90;;;;;;4182858;28;20206;-70
2022/04/01 09:48:27;;;;;;;6.60;4.40;;;2.10;99.90;;;;;;4191864;28;20445;-68
2022/04/01 09:50:31;;;;;;;4.60;3.30;;;2.30;99.90;;;;;;4180315;28;20482;-67
2022/04/01 09:52:36;;;;;;;6.20;4.17;;;2.10;99.90;;;;;;4191918;28;20302;-69
2022/04/01 09:54:44;;;;;;;4.40;3.43;;;2.10;99.90;;;;;;4163088;28;20482;-69
2022/04/01 09:56:47;;;;;;;4.67;3.33;;;2.20;99.90;;;;;;4186361;28;20860;-68
2022/04/01 09:58:47;;;;;;;6.30;3.90;;;2.40;99.90;;;;;;4178409;28;20500;-67
2022/04/01 10:00:49;;;;;;;4.43;3.50;;;2.30;99.90;;;;;;4193275;28;20425;-67
2022/04/01 10:02:51;;;;;;;5.97;3.07;;;2.40;99.90;;;;;;4177886;28;20971;-67
2022/04/01 10:04:54;;;;;;;4.67;3.10;;;2.50;99.90;;;;;;4161614;28;20432;-67
2022/04/01 10:06:55;;;;;;;5.90;3.57;;;2.40;99.90;;;;;;4191955;28;20476;-68
2022/04/01 10:09:02;;;;;;;3.43;2.43;;;2.20;99.90;;;;;;4173717;28;20435;-67
2022/04/01 10:11:04;;;;;;;3.90;3.17;;;2.20;99.90;;;;;;4174069;28;20337;-69
2022/04/01 10:13:22;;;;;;;3.70;2.63;;;2.20;99.90;;;;;;4175043;28;21086;-69
2022/04/01 10:15:23;;;;;;;3.20;2.43;;;2.30;99.90;;;;;;4185239;28;21367;-68
2022/04/01 10:17:28;;;;;;;3.13;2.37;;;2.40;99.90;;;;;;4177642;28;20430;-69
2022/04/01 10:19:32;;;;;;;3.80;2.80;;;2.70;99.90;;;;;;4183983;28;20181;-68
2022/04/01 10:21:35;;;;;;;3.83;2.60;;;2.60;99.90;;;;;;4178230;28;21315;-71
2022/04/01 10:23:43;;;;;;;3.87;2.70;;;2.60;99.90;;;;;;4184617;28;20430;-70
2022/04/01 10:25:51;;;;;;;3.37;2.30;;;2.80;99.90;;;;;;4180142;28;20566;-70
2022/04/01 10:27:53;;;;;;;3.23;2.63;;;2.70;99.90;;;;;;4180833;28;20928;-70
2022/04/01 10:29:57;;;;;;;2.80;2.10;;;2.40;99.90;;;;;;4178020;28;20434;-71
2022/04/01 10:32:36;;;;;;;3.40;2.50;;;2.10;99.90;;;;;;4172381;28;20435;-71
2022/04/01 10:34:46;;;;;;;2.90;2.17;;;2.20;99.90;;;;;;4187409;28;20837;-70
2022/04/01 10:37:00;;;;;;;3.23;2.20;;;2.40;99.90;;;;;;4173463;28;20451;-70
2022/04/01 10:39:06;;;;;;;2.13;1.80;;;2.40;99.90;;;;;;4174582;28;20427;-69
2022/04/01 10:41:12;;;;;;;3.10;2.17;;;2.50;99.90;;;;;;4187876;28;20509;-71
2022/04/01 10:43:17;;;;;;;2.77;2.10;;;2.50;99.90;;;;;;4175909;28;20418;-71
2022/04/01 10:45:18;;;;;;;2.50;1.70;;;2.80;99.90;;;;;;4176089;28;20434;-73
2022/04/01 10:47:22;;;;;;;2.73;2.10;;;2.90;99.90;;;;;;4167059;28;20456;-67
2022/04/01 10:52:11;;;;;;;3.57;2.37;;;2.80;99.90;;;;;;4171062;28;20810;-69
2022/04/01 10:54:12;;;;;;;2.70;1.90;;;3.00;99.90;;;;;;4167909;28;20427;-71
2022/04/01 10:56:22;;;;;;;2.90;2.00;;;2.90;99.90;;;;;;4174617;28;20952;-71
2022/04/01 10:58:23;;;;;;;2.40;1.93;;;2.90;99.90;;;;;;4166886;28;20208;-70
2022/04/01 11:00:28;;;;;;;3.23;2.17;;;2.80;99.90;;;;;;4175765;28;20458;-69
2022/04/01 11:02:29;;;;;;;2.40;1.83;;;2.90;99.90;;;;;;4165434;28;20270;-69
2022/04/01 11:04:37;;;;;;;2.23;1.87;;;2.90;99.90;;;;;;4176743;28;20937;-67
2022/04/01 11:06:51;;;;;;;2.63;2.00;;;3.10;99.90;;;;;;4165002;28;20258;-68
2022/04/01 11:08:53;;;;;;;3.07;2.07;;;3.30;99.90;;;;;;4161461;28;20951;-69
2022/04/01 11:11:09;;;;;;;2.23;1.83;;;3.20;99.90;;;;;;4177609;28;20497;-67
2022/04/01 11:13:28;;;;;;;2.33;1.73;;;3.30;99.90;;;;;;4165789;28;21138;-69
2022/04/01 11:15:30;;;;;;;2.40;1.97;;;3.00;99.90;;;;;;4162018;28;20447;-70
2022/04/01 11:17:51;;;;;;;3.00;1.57;;;3.00;99.90;;;;;;4168641;28;20422;-68
2022/04/01 11:20:09;;;;;;;2.60;2.10;;;2.90;99.90;;;;;;4170864;28;20939;-67
2022/04/01 11:22:36;;;;;;;2.50;1.90;;;2.80;99.90;;;;;;4167809;28;20739;-66
2022/04/01 11:24:41;;;;;;;2.37;1.80;;;3.00;99.90;;;;;;4162661;28;20425;-66
2022/04/01 11:26:42;;;;;;;2.47;2.10;;;3.20;99.90;;;;;;4177552;28;20555;-67
2022/04/01 11:28:43;;;;;;;2.13;1.60;;;3.30;99.90;;;;;;4163756;28;20508;-65
2022/04/01 11:30:49;;;;;;;2.30;1.80;;;3.40;99.90;;;;;;4176811;28;20434;-67
2022/04/01 11:33:17;;;;;;;3.17;2.30;;;3.40;99.90;;;;;;4161898;28;20243;-67
2022/04/01 11:35:23;;;;;;;2.07;1.70;;;3.30;99.90;;;;;;4152152;28;20423;-71
2022/04/01 11:37:25;;;;;;;1.97;1.77;;;3.20;99.90;;;;;;4172873;28;20439;-69
2022/04/01 11:39:26;;;;;;;2.17;1.83;;;3.20;99.90;;;;;;4167150;28;20473;-68
2022/04/01 11:41:27;;;;;;;3.27;2.70;;;3.30;99.90;;;;;;4173274;28;20530;-69
2022/04/01 11:43:29;;;;;;;2.23;1.73;;;3.40;99.90;;;;;;4166061;28;20188;-66
2022/04/01 11:45:39;;;;;;;2.67;1.87;;;3.30;99.90;;;;;;4173546;28;20260;-67
2022/04/01 11:47:39;;;;;;;2.00;1.50;;;3.10;99.90;;;;;;4168821;28;20431;-67
2022/04/01 11:49:40;;;;;;;2.03;1.80;;;3.10;99.90;;;;;;4171747;28;20511;-69
2022/04/01 11:51:41;;;;;;;2.67;1.83;;;3.00;99.90;;;;;;4168275;28;20652;-70
2022/04/01 11:53:51;;;;;;;1.53;1.43;;;3.10;99.90;;;;;;4171131;28;20633;-69
2022/04/01 11:55:54;;;;;;;2.50;1.87;;;2.90;99.90;;;;;;4168768;28;20664;-70
2022/04/01 11:57:57;;;;;;;2.60;2.10;;;2.80;99.90;;;;;;4168309;28;20965;-66
2022/04/01 12:00:01;;;;;;;2.57;2.20;;;2.60;99.90;;;;;;4171701;28;20427;-64
2022/04/01 12:02:09;;;;;;;2.03;1.83;;;2.50;99.90;;;;;;4168403;28;20427;-67
2022/04/01 12:04:12;;;;;;;2.10;1.60;;;2.80;99.90;;;;;;4173011;28;20451;-66
2022/04/01 12:08:42;;;;;;;3.03;2.10;;;3.00;99.90;;;;;;4163410;28;20435;-68
2022/04/01 12:10:54;;;;;;;2.00;1.80;;;3.00;99.90;;;;;;4177222;28;20467;-68
2022/04/01 12:13:08;;;;;;;2.87;2.00;;;3.10;99.90;;;;;;4144814;28;20558;-70
2022/04/01 12:15:09;;;;;;;2.90;2.17;;;3.10;99.90;;;;;;4164858;28;20432;-67
2022/04/01 12:17:10;;;;;;;3.23;2.23;;;3.30;99.90;;;;;;4163492;28;20503;-66
2022/04/01 12:19:20;;;;;;;2.60;2.10;;;3.30;99.90;;;;;;4175363;28;20467;-67
2022/04/01 12:21:23;;;;;;;2.37;1.90;;;3.60;99.90;;;;;;4163679;28;20302;-68
2022/04/01 12:23:27;;;;;;;2.60;1.80;;;3.50;99.90;;;;;;4173478;28;20431;-70
2022/04/01 12:25:31;;;;;;;4.20;2.50;;;3.50;99.90;;;;;;4166488;28;20475;-69
2022/04/01 12:27:31;;;;;;;2.43;2.07;;;3.20;99.90;;;;;;4165159;28;20436;-69
2022/04/01 12:29:33;;;;;;;3.40;2.57;;;3.20;99.90;;;;;;4167080;28;20446;-70
2022/04/01 12:31:33;;;;;;;3.47;2.20;;;3.30;99.90;;;;;;4171141;28;20793;-68
2022/04/01 12:33:34;;;;;;;3.90;3.03;;;3.20;99.90;;;;;;4166910;28;20469;-67
2022/04/01 12:35:47;;;;;;;2.50;2.07;;;3.20;99.90;;;;;;4166155;28;20239;-67
2022/04/01 12:38:07;;;;;;;2.67;2.07;;;3.10;99.90;;;;;;4167597;28;20188;-67
2022/04/01 12:40:10;;;;;;;3.10;2.00;;;3.10;99.90;;;;;;4167078;28;20463;-67
2022/04/01 12:42:14;;;;;;;2.63;1.90;;;3.20;99.90;;;;;;4170288;28;20431;-66
2022/04/01 12:44:15;;;;;;;2.70;2.20;;;3.40;99.90;;;;;;4165743;28;20424;-67
2022/04/01 12:46:21;;;;;;;2.50;1.90;;;3.50;99.90;;;;;;4172851;28;20458;-65
2022/04/01 12:48:24;;;;;;;2.77;2.30;;;3.60;99.90;;;;;;4165178;28;20191;-64
2022/04/01 12:50:35;;;;;;;2.27;1.70;;;3.50;99.90;;;;;;4174500;28;20439;-67
2022/04/01 12:52:36;;;;;;;2.73;1.87;;;3.30;99.90;;;;;;4161358;28;20502;-67
2022/04/01 12:54:39;;;;;;;2.23;1.50;;;3.30;99.90;;;;;;4173981;28;20460;-67
2022/04/01 12:56:43;;;;;;;2.03;1.60;;;3.30;99.90;;;;;;4161277;28;20228;-68
2022/04/01 12:58:53;;;;;;;2.47;1.87;;;3.20;99.90;;;;;;4176533;28;20647;-66
2022/04/01 13:01:06;;;;;;;2.73;2.03;;;3.30;99.90;;;;;;4146736;28;20764;-66
2022/04/01 13:03:08;;;;;;;3.07;2.47;;;2.90;99.90;;;;;;4175186;28;20981;-66
2022/04/01 13:05:12;;;;;;;2.87;2.40;;;2.80;99.90;;;;;;4162171;28;20421;-67
2022/04/01 13:07:18;;;;;;;3.67;2.33;;;2.90;99.90;;;;;;4173878;28;20501;-71
2022/04/01 13:09:21;;;;;;;2.23;1.97;;;2.90;99.90;;;;;;4163197;28;20538;-67
2022/04/01 13:11:21;;;;;;;2.23;1.93;;;2.80;99.90;;;;;;4172368;28;20820;-68
2022/04/01 13:13:22;;;;;;;3.13;2.40;;;2.60;99.90;;;;;;4164990;28;20519;-67
2022/04/01 13:15:27;;;;;;;1.93;1.53;;;2.70;99.90;;;;;;4166946;28;20199;-68
2022/04/01 13:17:28;;;;;;;2.13;1.80;;;2.70;99.90;;;;;;4165922;28;20184;-67
2022/04/01 13:19:33;;;;;;;1.73;1.63;;;2.90;99.90;;;;;;4171977;28;20426;-66
2022/04/01 13:21:33;;;;;;;2.67;2.10;;;2.90;99.90;;;;;;4165944;28;20473;-66
2022/04/01 13:23:35;;;;;;;2.17;1.80;;;3.10;99.90;;;;;;4171274;28;20805;-71
2022/04/01 13:25:36;;;;;;;1.50;1.40;;;3.10;99.90;;;;;;4167054;28;20776;-71
2022/04/01 13:27:37;;;;;;;1.83;1.67;;;3.00;99.90;;;;;;4170943;28;20459;-67
2022/04/01 13:29:39;;;;;;;1.77;1.40;;;3.00;99.90;;;;;;4167270;28;20648;-69
2022/04/01 13:31:40;;;;;;;2.20;1.50;;;2.90;99.90;;;;;;4169832;28;20196;-67
2022/04/01 13:33:42;;;;;;;2.37;1.87;;;2.90;99.90;;;;;;4167566;28;21004;-71
2022/04/01 13:35:43;;;;;;;2.13;1.63;;;2.90;99.90;;;;;;4170055;28;20452;-68
2022/04/01 13:37:44;;;;;;;2.30;1.83;;;2.80;99.90;;;;;;4168275;28;20517;-68
2022/04/01 13:39:45;;;;;;;2.37;1.80;;;3.00;99.90;;;;;;4161442;28;20184;-69
2022/04/01 13:41:46;;;;;;;1.43;1.30;;;3.00;99.90;;;;;;4167895;28;20976;-67
2022/04/01 13:43:46;;;;;;;1.70;1.30;;;2.70;99.90;;;;;;4168286;28;20498;-67
2022/04/01 13:45:48;;;;;;;1.80;1.50;;;2.70;99.90;;;;;;4168463;28;20200;-67
2022/04/01 13:47:49;;;;;;;2.47;2.07;;;2.40;99.90;;;;;;4169244;28;20243;-68
2022/04/01 13:49:51;;;;;;;2.03;1.60;;;2.40;99.90;;;;;;4169044;28;20434;-65
2022/04/01 13:51:52;;;;;;;1.80;1.60;;;2.70;99.90;;;;;;4171505;28;20423;-66
2022/04/01 13:53:53;;;;;;;2.37;1.80;;;2.90;99.90;;;;;;4168512;28;20509;-65
2022/04/01 13:55:54;;;;;;;1.97;1.77;;;2.80;99.90;;;;;;4163191;28;20193;-68
2022/04/01 13:57:55;;;;;;;2.53;1.70;;;2.90;99.90;;;;;;4160837;28;20573;-70
2022/04/01 13:59:56;;;;;;;2.40;1.73;;;2.70;99.90;;;;;;4170079;28;20422;-66
2022/04/01 14:01:57;;;;;;;2.77;1.90;;;2.60;99.90;;;;;;4167982;28;20652;-67